Time;durP1;ratioP1;P1;durP2;ratioP2;P2;SDS_P1;SDS_P2;PMS_P1;PMS_P2;Temp;Humidity;BMP_temperature;BMP_pressure;BME280_temperature;BME280_humidity;BME280_pressure;Samples;Min_cycle;Max_cycle;Signal;HPM_P1;HPM_P2
2023/04/23 00:00:53;;;;;;;11.90;7.88;;;;;;;10.36;78.44;95009.03;4986420;28;20286;-65
2023/04/23 00:03:23;;;;;;;15.80;7.50;;;;;;;10.29;79.09;95012.66;4988194;28;20295;-64
2023/04/23 00:05:53;;;;;;;11.50;7.70;;;;;;;10.32;79.08;95010.00;4986719;28;20204;-61
2023/04/23 00:08:22;;;;;;;12.32;7.65;;;;;;;10.33;78.88;95007.44;4986885;28;20235;-63
2023/04/23 00:10:49;;;;;;;17.77;9.38;;;;;;;10.27;78.90;95004.25;4986984;28;20250;-64
2023/04/23 00:13:16;;;;;;;10.85;7.63;;;;;;;10.19;78.88;95002.78;4988540;28;20320;-65
2023/04/23 00:15:43;;;;;;;12.48;9.32;;;;;;;10.11;79.06;95008.97;4986623;28;20310;-63
2023/04/23 00:18:10;;;;;;;15.07;8.30;;;;;;;10.05;79.33;95010.00;4986241;28;20704;-61
2023/04/23 00:20:37;;;;;;;9.25;7.30;;;;;;;10.04;79.26;95010.06;4986322;28;21731;-62
2023/04/23 00:23:04;;;;;;;9.60;7.90;;;;;;;10.00;79.13;95011.03;4987234;28;20215;-61
2023/04/23 00:25:32;;;;;;;7.18;6.47;;;;;;;10.01;78.71;95005.06;4985565;28;20208;-64
2023/04/23 00:27:59;;;;;;;9.45;6.30;;;;;;;9.91;78.89;95004.53;4986229;28;20302;-62
2023/04/23 00:30:25;;;;;;;8.80;6.72;;;;;;;9.94;78.58;95001.88;4986371;28;20366;-60
2023/04/23 00:32:52;;;;;;;12.73;7.65;;;;;;;9.91;78.65;95007.06;4985513;28;20300;-60
2023/04/23 00:35:19;;;;;;;10.35;8.00;;;;;;;9.81;78.97;95003.16;4985804;28;20236;-61
2023/04/23 00:37:46;;;;;;;8.38;7.57;;;;;;;9.83;79.16;94994.63;4986445;28;20217;-64
2023/04/23 00:40:13;;;;;;;9.93;8.48;;;;;;;9.76;79.61;95002.47;4987332;28;20326;-64
2023/04/23 00:42:43;;;;;;;12.48;8.45;;;;;;;9.70;79.36;95005.19;4987682;28;21991;-60
2023/04/23 00:45:11;;;;;;;9.57;8.00;;;;;;;9.67;79.33;95003.59;4986189;28;20261;-60
2023/04/23 00:47:38;;;;;;;8.80;8.05;;;;;;;9.59;80.01;95003.00;4985178;28;20207;-61
2023/04/23 00:50:06;;;;;;;10.52;8.05;;;;;;;9.64;79.69;95007.94;4985633;28;20319;-61
2023/04/23 00:52:34;;;;;;;10.50;8.05;;;;;;;9.79;79.05;95007.47;4986380;28;20689;-62
2023/04/23 00:55:01;;;;;;;10.50;9.40;;;;;;;9.76;78.25;94999.94;4985905;28;21450;-63
2023/04/23 00:57:28;;;;;;;9.55;8.32;;;;;;;9.77;78.74;95014.28;4984384;28;20308;-64
2023/04/23 00:59:57;;;;;;;10.63;8.38;;;;;;;9.83;78.24;95006.50;4986690;28;20831;-64
2023/04/23 01:02:25;;;;;;;12.23;8.95;;;;;;;9.77;78.52;95010.03;4984712;28;20565;-64
2023/04/23 01:04:53;;;;;;;9.18;8.30;;;;;;;9.63;78.57;95002.03;4985602;28;20309;-62
2023/04/23 01:07:21;;;;;;;14.80;9.27;;;;;;;9.49;78.91;94997.38;4984189;28;20227;-62
2023/04/23 01:09:50;;;;;;;8.60;7.63;;;;;;;9.42;78.85;95011.09;4985910;28;20238;-61
2023/04/23 01:12:17;;;;;;;8.80;7.80;;;;;;;9.33;79.14;95013.94;4984318;28;20317;-63
2023/04/23 01:14:44;;;;;;;10.60;8.65;;;;;;;9.31;79.59;95013.16;4985333;28;20216;-62
2023/04/23 01:17:13;;;;;;;9.52;7.90;;;;;;;9.33;79.42;95010.56;4983914;28;20329;-63
2023/04/23 01:19:42;;;;;;;12.00;9.15;;;;;;;9.34;79.34;95013.06;4979084;28;20617;-61
2023/04/23 01:22:11;;;;;;;8.98;8.10;;;;;;;9.32;79.17;95012.28;4970520;28;20204;-61
2023/04/23 01:24:39;;;;;;;25.83;8.48;;;;;;;9.26;79.20;95007.38;4975357;28;20303;-61
2023/04/23 01:27:06;;;;;;;8.80;8.00;;;;;;;9.23;79.58;95007.47;4984245;28;20212;-62
2023/04/23 01:29:34;;;;;;;8.85;7.97;;;;;;;9.28;79.50;95010.69;4983112;28;20211;-62
2023/04/23 01:32:01;;;;;;;9.32;8.43;;;;;;;9.23;79.61;95006.63;4984180;28;20223;-65
2023/04/23 01:34:30;;;;;;;8.52;7.38;;;;;;;9.26;79.54;95011.63;4984127;28;20261;-60
2023/04/23 01:36:57;;;;;;;8.23;7.43;;;;;;;9.28;79.49;95010.69;4982951;28;20322;-62
2023/04/23 01:39:26;;;;;;;8.07;7.35;;;;;;;9.32;79.03;95007.22;4982258;28;20287;-65
2023/04/23 01:41:53;;;;;;;13.75;6.75;;;;;;;9.34;79.38;95004.63;4986825;28;20236;-63
2023/04/23 01:44:20;;;;;;;7.80;6.80;;;;;;;9.23;79.47;95010.00;4985958;28;20306;-62
2023/04/23 01:46:46;;;;;;;9.80;7.13;;;;;;;9.22;79.19;95018.47;4985630;28;20343;-65
2023/04/23 01:49:14;;;;;;;8.43;6.13;;;;;;;9.20;78.75;95018.53;4984907;28;20294;-60
2023/04/23 01:51:40;;;;;;;6.60;6.10;;;;;;;9.24;78.86;95019.25;4983682;28;20346;-61
2023/04/23 01:54:07;;;;;;;7.75;7.10;;;;;;;9.19;78.94;95013.50;4985522;28;20860;-60
2023/04/23 01:56:35;;;;;;;9.00;6.40;;;;;;;9.20;78.64;95012.63;4984755;28;21953;-63
2023/04/23 01:59:02;;;;;;;7.70;7.00;;;;;;;9.09;79.02;95024.78;4984299;28;20211;-64
2023/04/23 02:01:42;;;;;;;8.63;7.57;;;;;;;9.08;79.44;95020.59;4984570;28;20342;-62
2023/04/23 02:04:10;;;;;;;7.38;6.68;;;;;;;9.04;79.82;95021.53;4984854;28;20203;-61
2023/04/23 02:06:36;;;;;;;7.50;6.10;;;;;;;8.96;79.51;95023.47;4985952;28;20207;-64
2023/04/23 02:09:04;;;;;;;6.43;5.93;;;;;;;8.93;80.01;95018.47;4984033;28;20313;-65
2023/04/23 02:11:31;;;;;;;7.57;6.90;;;;;;;9.00;79.99;95020.81;4986149;28;20228;-61
2023/04/23 02:13:59;;;;;;;7.45;6.75;;;;;;;8.95;80.17;95022.63;4984353;28;20872;-63
2023/04/23 02:16:27;;;;;;;7.63;6.63;;;;;;;8.91;79.48;95017.72;4985523;28;20298;-65
2023/04/23 02:18:54;;;;;;;7.72;6.25;;;;;;;8.83;80.31;95023.81;4984811;28;20604;-61
2023/04/23 02:21:20;;;;;;;11.27;6.53;;;;;;;8.90;80.55;95023.66;4987416;28;20306;-62
2023/04/23 02:23:47;;;;;;;7.15;6.55;;;;;;;8.84;79.73;95025.47;4989237;28;20290;-61
2023/04/23 02:26:14;;;;;;;11.63;6.13;;;;;;;8.86;79.63;95020.38;4989669;28;20298;-61
2023/04/23 02:28:41;;;;;;;7.28;6.38;;;;;;;8.80;80.16;95023.06;4987421;28;20212;-64
2023/04/23 02:31:09;;;;;;;7.60;5.55;;;;;;;8.84;80.09;95030.53;4989956;28;20227;-65
2023/04/23 02:33:36;;;;;;;8.73;5.88;;;;;;;8.85;79.80;95031.38;4989287;28;20211;-63
2023/04/23 02:36:02;;;;;;;8.43;6.03;;;;;;;8.71;80.59;95014.00;4988553;28;20777;-62
2023/04/23 02:38:29;;;;;;;8.57;6.22;;;;;;;8.78;80.43;95029.88;4986703;28;20294;-63
2023/04/23 02:40:56;;;;;;;8.60;6.63;;;;;;;8.79;80.26;95019.69;4988785;28;20330;-61
2023/04/23 02:43:22;;;;;;;7.75;6.75;;;;;;;8.83;80.16;95028.88;4988225;28;20334;-64
2023/04/23 02:45:49;;;;;;;7.32;6.72;;;;;;;8.83;79.83;95022.97;4988520;28;20749;-63
2023/04/23 02:48:17;;;;;;;10.68;6.90;;;;;;;8.83;79.52;95026.34;4986279;28;20295;-65
2023/04/23 02:50:45;;;;;;;7.95;6.88;;;;;;;8.76;79.74;95022.31;4986882;28;20239;-62
2023/04/23 02:53:12;;;;;;;12.10;7.28;;;;;;;8.71;80.41;95024.13;4988519;28;20309;-64
2023/04/23 02:55:39;;;;;;;8.70;7.28;;;;;;;8.69;80.67;95025.03;4986171;28;20235;-63
2023/04/23 02:58:06;;;;;;;9.02;6.78;;;;;;;8.61;81.06;95027.81;4989216;28;20208;-64
2023/04/23 03:00:33;;;;;;;8.32;6.93;;;;;;;8.55;80.48;95027.94;4989014;28;20212;-64
2023/04/23 03:02:59;;;;;;;9.23;6.90;;;;;;;8.42;81.21;95022.34;4986669;28;20648;-64
2023/04/23 03:05:27;;;;;;;7.88;7.10;;;;;;;8.43;81.12;95028.25;4988731;28;20301;-61
2023/04/23 03:07:54;;;;;;;6.80;5.95;;;;;;;8.46;80.55;95029.00;4988546;28;20778;-64
2023/04/23 03:10:21;;;;;;;7.38;6.75;;;;;;;8.57;80.55;95028.75;4988453;28;20214;-65
2023/04/23 03:12:48;;;;;;;7.18;6.55;;;;;;;8.49;80.19;95034.00;4990447;28;20705;-64
2023/04/23 03:15:14;;;;;;;8.50;7.25;;;;;;;8.44;80.65;95024.84;4989155;28;20288;-65
2023/04/23 03:17:41;;;;;;;7.70;7.00;;;;;;;8.50;80.23;95039.91;4988014;28;20350;-61
2023/04/23 03:20:10;;;;;;;6.82;6.28;;;;;;;8.45;80.59;95037.47;4987964;28;20715;-63
2023/04/23 03:22:38;;;;;;;9.93;7.53;;;;;;;8.57;80.75;95038.03;4987611;28;20693;-64
2023/04/23 03:25:06;;;;;;;7.40;6.70;;;;;;;8.55;80.47;95045.69;4989046;28;20822;-62
2023/04/23 03:27:32;;;;;;;7.25;6.55;;;;;;;8.48;79.59;95041.63;4987663;28;21438;-63
2023/04/23 03:29:59;;;;;;;7.47;6.88;;;;;;;8.48;80.68;95037.41;4988693;28;20295;-65
2023/04/23 03:32:26;;;;;;;8.65;7.45;;;;;;;8.56;79.92;95044.81;4987842;28;20242;-63
2023/04/23 03:34:52;;;;;;;9.30;6.43;;;;;;;8.63;79.55;95046.31;4987960;28;20743;-61
2023/04/23 03:37:19;;;;;;;7.57;6.32;;;;;;;8.60;79.83;95046.41;4986105;28;20231;-64
2023/04/23 03:39:47;;;;;;;8.00;6.60;;;;;;;8.68;79.41;95051.25;4989173;28;20254;-62
2023/04/23 03:42:14;;;;;;;7.75;6.93;;;;;;;8.77;79.92;95049.31;4987830;28;20294;-62
2023/04/23 03:44:40;;;;;;;19.70;7.65;;;;;;;8.81;79.54;95045.81;4987395;28;20308;-63
2023/04/23 03:47:07;;;;;;;10.05;7.10;;;;;;;8.85;80.00;95055.00;4986704;28;20295;-64
2023/04/23 03:49:34;;;;;;;7.22;6.63;;;;;;;9.01;79.07;95049.50;4988438;28;20211;-64
2023/04/23 03:52:01;;;;;;;11.18;7.05;;;;;;;9.09;79.07;95048.44;4987667;28;20224;-64
2023/04/23 03:54:27;;;;;;;8.90;6.90;;;;;;;9.22;78.15;95051.44;4988480;28;20208;-64
2023/04/23 03:56:56;;;;;;;10.48;6.53;;;;;;;9.27;78.07;95049.63;4987116;28;20641;-63
2023/04/23 03:59:23;;;;;;;10.75;6.85;;;;;;;9.41;77.40;95052.56;4988644;28;20704;-64
2023/04/23 04:01:49;;;;;;;10.00;7.35;;;;;;;9.58;77.08;95054.63;4985952;28;20232;-64
2023/04/23 04:04:16;;;;;;;8.88;6.78;;;;;;;9.69;76.58;95059.38;4988019;28;20231;-64
2023/04/23 04:06:43;;;;;;;9.68;6.97;;;;;;;9.80;76.34;95059.88;4986933;28;20272;-60
2023/04/23 04:09:10;;;;;;;7.32;6.63;;;;;;;9.82;75.40;95060.66;4987310;28;20290;-63
2023/04/23 04:11:37;;;;;;;8.73;7.38;;;;;;;9.89;75.27;95052.81;4985550;28;20231;-62
2023/04/23 04:14:05;;;;;;;9.90;7.82;;;;;;;10.02;74.96;95062.59;4985885;28;20334;-61
2023/04/23 04:16:31;;;;;;;7.63;6.90;;;;;;;10.12;74.17;95061.44;4987685;28;20726;-62
2023/04/23 04:18:58;;;;;;;7.63;6.90;;;;;;;10.26;74.33;95063.53;4987983;28;20899;-62
2023/04/23 04:21:25;;;;;;;7.30;6.28;;;;;;;10.53;74.00;95058.41;4986368;28;20689;-62
2023/04/23 04:23:52;;;;;;;8.40;7.20;;;;;;;10.99;73.86;95061.06;4984583;28;20303;-61
2023/04/23 04:26:19;;;;;;;8.45;6.90;;;;;;;11.57;72.50;95065.72;4986903;28;20239;-61
2023/04/23 04:28:46;;;;;;;6.72;6.13;;;;;;;12.20;69.26;95060.75;4984873;28;20212;-59
2023/04/23 04:31:15;;;;;;;8.55;7.68;;;;;;;12.92;66.03;95061.16;4986106;28;20231;-62
2023/04/23 04:33:42;;;;;;;9.90;6.97;;;;;;;13.55;64.48;95060.13;4984887;28;20227;-60
2023/04/23 04:36:09;;;;;;;7.45;6.75;;;;;;;14.15;62.40;95067.56;4985656;28;20890;-64
2023/04/23 04:38:38;;;;;;;9.38;7.78;;;;;;;14.92;61.14;95066.34;4985018;28;20210;-65
2023/04/23 04:41:05;;;;;;;11.07;6.65;;;;;;;15.94;58.24;95063.53;4985855;28;20210;-61
2023/04/23 04:43:33;;;;;;;11.02;6.82;;;;;;;16.95;54.67;95063.00;4985378;28;20207;-64
2023/04/23 04:46:00;;;;;;;10.80;7.18;;;;;;;17.78;51.63;95067.44;4985125;28;20214;-62
2023/04/23 04:48:28;;;;;;;8.07;5.93;;;;;;;18.51;50.70;95059.41;4986137;28;20207;-61
2023/04/23 04:50:55;;;;;;;9.48;7.65;;;;;;;19.51;47.69;95062.19;4986373;28;20332;-64
2023/04/23 04:53:21;;;;;;;6.45;5.93;;;;;;;20.09;45.09;95063.28;4985324;28;20847;-63
2023/04/23 04:55:48;;;;;;;7.72;6.95;;;;;;;20.08;45.01;95062.47;4987343;28;20691;-66
2023/04/23 04:58:15;;;;;;;7.57;6.97;;;;;;;19.81;44.53;95072.13;4985681;28;20747;-62
2023/04/23 05:00:43;;;;;;;7.70;7.00;;;;;;;19.50;45.29;95063.97;4987334;28;20211;-63
2023/04/23 05:03:10;;;;;;;8.55;7.75;;;;;;;19.42;45.86;95073.91;4984492;28;20207;-63
2023/04/23 05:05:38;;;;;;;10.15;8.00;;;;;;;19.38;44.85;95072.47;4985658;28;20214;-64
2023/04/23 05:08:05;;;;;;;9.18;8.30;;;;;;;19.31;44.74;95072.06;4986078;28;20313;-61
2023/04/23 05:10:31;;;;;;;16.48;8.55;;;;;;;19.22;44.61;95077.84;4986057;28;20664;-61
2023/04/23 05:13:00;;;;;;;9.77;8.30;;;;;;;19.16;44.68;95067.13;4983605;28;20838;-63
2023/04/23 05:15:27;;;;;;;11.10;10.00;;;;;;;18.88;45.40;95068.97;4985379;28;20219;-62
2023/04/23 05:17:54;;;;;;;10.75;9.00;;;;;;;18.83;45.62;95071.00;4984191;28;20207;-61
2023/04/23 05:20:21;;;;;;;13.52;8.20;;;;;;;19.39;44.69;95074.13;4983832;28;20330;-62
2023/04/23 05:22:49;;;;;;;10.98;8.07;;;;;;;20.26;42.35;95070.66;4984707;28;20287;-66
2023/04/23 05:25:16;;;;;;;10.80;7.35;;;;;;;20.96;40.38;95065.56;4982955;28;20414;-62
2023/04/23 05:27:43;;;;;;;12.43;7.95;;;;;;;21.45;40.19;95064.47;4984934;28;20900;-63
2023/04/23 05:30:10;;;;;;;21.45;8.23;;;;;;;21.63;39.44;95076.81;4985282;28;20302;-64
2023/04/23 05:32:38;;;;;;;8.50;7.68;;;;;;;21.90;38.79;95071.28;4985691;28;20227;-66
2023/04/23 05:35:06;;;;;;;11.25;7.28;;;;;;;22.54;37.91;95075.72;4984179;28;20238;-67
2023/04/23 05:37:32;;;;;;;10.63;7.18;;;;;;;23.49;36.31;95077.38;4985555;28;20246;-64
2023/04/23 05:40:01;;;;;;;7.30;6.70;;;;;;;23.83;35.60;95071.94;4985342;28;20437;-65
2023/04/23 05:42:28;;;;;;;8.32;6.43;;;;;;;24.00;36.41;95073.94;4986175;28;20805;-63
2023/04/23 05:44:55;;;;;;;7.25;5.25;;;;;;;24.34;33.69;95075.25;4984047;28;20303;-64
2023/04/23 05:47:21;;;;;;;7.13;5.10;;;;;;;25.00;33.13;95077.19;4984444;28;20231;-62
2023/04/23 05:49:48;;;;;;;7.10;5.22;;;;;;;26.33;32.10;95073.50;4985076;28;20658;-65
2023/04/23 05:52:15;;;;;;;6.30;5.80;;;;;;;27.51;30.14;95071.38;4985329;28;20322;-63
2023/04/23 05:54:42;;;;;;;6.15;4.90;;;;;;;28.17;27.92;95073.38;4984721;28;21099;-66
2023/04/23 05:57:10;;;;;;;5.30;4.90;;;;;;;29.12;26.21;95074.72;4986058;28;20295;-66
2023/04/23 05:59:37;;;;;;;6.10;5.10;;;;;;;29.76;25.50;95073.78;4984791;28;20240;-63
2023/04/23 06:02:04;;;;;;;6.70;5.10;;;;;;;30.25;25.91;95073.63;4985060;28;20791;-66
2023/04/23 06:04:30;;;;;;;13.27;5.85;;;;;;;30.37;24.20;95071.47;4983918;28;20298;-63
2023/04/23 06:06:57;;;;;;;8.48;5.80;;;;;;;30.43;24.77;95074.22;4984736;28;20322;-64
2023/04/23 06:09:24;;;;;;;7.53;5.25;;;;;;;30.80;24.22;95070.06;4985418;28;20290;-66
2023/04/23 06:11:52;;;;;;;6.63;6.22;;;;;;;30.91;23.93;95067.03;4985223;28;20988;-67
2023/04/23 06:14:20;;;;;;;11.00;9.85;;;;;;;31.58;23.38;95066.31;4985321;28;20211;-63
2023/04/23 06:16:46;;;;;;;11.07;7.78;;;;;;;32.59;22.58;95057.72;4985294;28;20236;-66
2023/04/23 06:19:13;;;;;;;6.47;5.97;;;;;;;35.09;20.39;95066.34;4985636;28;20349;-68
2023/04/23 06:21:40;;;;;;;5.88;5.28;;;;;;;35.19;19.64;95065.94;4985921;28;20207;-67
2023/04/23 06:24:07;;;;;;;6.72;6.03;;;;;;;31.94;22.37;95061.16;4985031;28;20744;-67
2023/04/23 06:26:34;;;;;;;6.50;6.05;;;;;;;30.38;23.80;95066.03;4985094;28;21551;-63
2023/04/23 06:29:00;;;;;;;7.63;6.93;;;;;;;29.44;25.52;95060.81;4984308;28;20293;-62
2023/04/23 06:31:29;;;;;;;6.40;5.90;;;;;;;29.30;25.76;95062.25;4985449;28;20346;-64
2023/04/23 06:33:56;;;;;;;6.63;5.97;;;;;;;30.66;23.89;95057.72;4984678;28;20225;-66
2023/04/23 06:36:22;;;;;;;7.78;6.40;;;;;;;33.06;22.03;95057.19;4984806;28;20202;-62
2023/04/23 06:38:49;;;;;;;6.90;6.25;;;;;;;34.95;19.91;95057.59;4985687;28;20990;-62
2023/04/23 06:41:16;;;;;;;5.88;5.47;;;;;;;36.16;18.91;95068.69;4985510;28;20334;-66
2023/04/23 06:43:43;;;;;;;7.65;5.82;;;;;;;35.43;19.16;95068.00;4983569;28;20291;-65
2023/04/23 06:46:09;;;;;;;9.20;5.63;;;;;;;34.91;19.51;95050.28;4983988;28;20348;-62
2023/04/23 06:48:37;;;;;;;5.95;5.45;;;;;;;35.68;19.35;95055.75;4985217;28;20417;-67
2023/04/23 06:51:04;;;;;;;5.40;5.10;;;;;;;37.37;17.83;95052.78;4986038;28;20818;-66
2023/04/23 06:53:31;;;;;;;6.65;5.80;;;;;;;37.91;17.85;95051.22;4983845;28;20293;-63
2023/04/23 06:55:58;;;;;;;6.10;5.57;;;;;;;39.48;16.82;95057.34;4985408;28;20212;-64
2023/04/23 06:58:30;;;;;;;6.90;6.20;;;;;;;40.50;15.92;95055.03;4984286;28;20299;-65
2023/04/23 07:00:58;;;;;;;9.35;5.25;;;;;;;41.31;15.16;95048.53;4986197;28;20208;-68
2023/04/23 07:03:26;;;;;;;5.88;5.47;;;;;;;40.95;15.74;95047.91;4983580;28;20208;-68
2023/04/23 07:05:54;;;;;;;5.97;5.57;;;;;;;41.76;14.51;95046.56;4984697;28;20206;-65
2023/04/23 07:08:21;;;;;;;4.95;4.57;;;;;;;40.97;15.77;95047.66;4988135;28;21783;-64
2023/04/23 07:10:48;;;;;;;6.47;5.10;;;;;;;40.85;15.75;95053.03;4988624;28;20325;-69
2023/04/23 07:13:15;;;;;;;5.40;4.93;;;;;;;41.20;15.07;95039.53;4988450;28;20228;-66
2023/04/23 07:15:42;;;;;;;4.97;4.28;;;;;;;42.30;14.64;95040.59;4988306;28;20205;-69
2023/04/23 07:18:09;;;;;;;7.45;5.32;;;;;;;37.58;17.13;95057.69;4987418;28;20874;-63
2023/04/23 07:20:36;;;;;;;5.70;4.93;;;;;;;33.21;20.96;95060.53;4989082;28;20302;-62
2023/04/23 07:23:04;;;;;;;5.68;5.15;;;;;;;32.03;22.48;95045.13;4988591;28;20322;-64
2023/04/23 07:25:31;;;;;;;6.35;5.32;;;;;;;31.25;23.10;95044.78;4987458;28;20298;-62
2023/04/23 07:27:58;;;;;;;7.57;4.85;;;;;;;30.74;24.15;95047.13;4987754;28;20665;-65
2023/04/23 07:30:26;;;;;;;5.60;5.05;;;;;;;32.95;22.07;95042.69;4987355;28;20212;-63
2023/04/23 07:32:54;;;;;;;6.20;4.63;;;;;;;33.55;21.49;95038.72;4988348;28;20357;-68
2023/04/23 07:35:21;;;;;;;6.97;6.43;;;;;;;34.92;20.27;95033.41;4987119;28;20216;-64
2023/04/23 07:37:52;;;;;;;5.43;4.93;;;;;;;36.64;18.42;95039.16;4987535;28;20694;-66
2023/04/23 07:40:21;;;;;;;7.30;5.13;;;;;;;36.40;18.94;95032.78;4987527;28;20286;-68
2023/04/23 07:42:48;;;;;;;6.32;5.00;;;;;;;35.35;19.75;95039.16;4987270;28;20303;-68
2023/04/23 07:45:15;;;;;;;5.35;4.60;;;;;;;35.69;19.93;95036.25;4986787;28;20210;-66
2023/04/23 07:47:41;;;;;;;5.68;5.18;;;;;;;37.07;18.92;95037.50;4986587;28;20236;-66
2023/04/23 07:50:09;;;;;;;7.03;4.53;;;;;;;38.91;16.80;95039.16;4986133;28;20223;-68
2023/04/23 07:52:36;;;;;;;5.75;4.20;;;;;;;38.97;16.90;95040.91;4987447;28;20290;-65
2023/04/23 07:55:02;;;;;;;7.93;4.35;;;;;;;37.08;17.50;95036.47;4985643;28;20262;-65
2023/04/23 07:57:31;;;;;;;4.75;3.83;;;;;;;34.64;20.02;95034.38;4987240;28;20295;-64
2023/04/23 07:59:57;;;;;;;6.25;4.50;;;;;;;34.47;20.03;95041.84;4986539;28;20290;-64
2023/04/23 08:02:26;;;;;;;5.40;4.45;;;;;;;35.40;19.35;95037.50;4985967;28;20199;-64
2023/04/23 08:04:53;;;;;;;5.25;4.90;;;;;;;36.72;19.21;95036.28;4986924;28;20745;-63
2023/04/23 08:07:20;;;;;;;5.90;5.43;;;;;;;36.89;17.75;95023.34;4988735;28;20334;-67
2023/04/23 08:09:46;;;;;;;5.35;4.82;;;;;;;37.14;18.65;95022.31;4987400;28;20696;-63
2023/04/23 08:12:16;;;;;;;7.97;4.40;;;;;;;38.38;17.00;95034.56;4986318;28;20700;-66
2023/04/23 08:14:46;;;;;;;6.13;5.70;;;;;;;34.41;19.97;95031.25;4985953;28;20310;-68
2023/04/23 08:17:12;;;;;;;5.68;5.32;;;;;;;29.81;25.42;95041.03;4987388;28;20203;-63
2023/04/23 08:19:39;;;;;;;5.75;5.03;;;;;;;31.29;24.77;95030.31;4986234;28;22042;-64
2023/04/23 08:22:06;;;;;;;5.03;4.70;;;;;;;34.86;21.13;95023.69;4988061;28;20208;-65
2023/04/23 08:24:33;;;;;;;6.15;5.65;;;;;;;33.21;20.89;95028.13;4985930;28;20358;-63
2023/04/23 08:27:00;;;;;;;5.18;4.60;;;;;;;31.73;22.89;95028.53;4985606;28;20253;-64
2023/04/23 08:29:27;;;;;;;4.68;4.25;;;;;;;33.85;21.00;95028.81;4987027;28;20735;-66
2023/04/23 08:31:55;;;;;;;8.57;5.30;;;;;;;36.85;18.37;95015.03;4988446;28;20355;-67
2023/04/23 08:34:22;;;;;;;8.50;4.40;;;;;;;38.26;18.04;95017.78;4986899;28;20406;-64
2023/04/23 08:36:48;;;;;;;5.40;4.97;;;;;;;38.10;17.05;95008.56;4986858;28;20330;-64
2023/04/23 08:39:15;;;;;;;5.03;4.63;;;;;;;36.89;18.17;95010.09;4985849;28;20688;-64
2023/04/23 08:41:44;;;;;;;5.20;4.85;;;;;;;35.69;19.08;95015.09;4985968;28;20203;-66
2023/04/23 08:44:17;;;;;;;6.85;4.85;;;;;;;31.42;22.46;95014.75;4984432;28;20288;-64
2023/04/23 08:46:45;;;;;;;7.95;5.32;;;;;;;28.00;27.11;95019.41;4986729;28;20329;-65
2023/04/23 08:49:15;;;;;;;6.18;5.65;;;;;;;24.66;31.99;95007.44;4987178;28;20295;-64
2023/04/23 08:51:46;;;;;;;6.25;5.65;;;;;;;24.31;33.44;95015.78;4985555;28;20204;-67
2023/04/23 08:54:16;;;;;;;7.80;5.32;;;;;;;28.03;29.31;94993.78;4985945;28;20373;-64
2023/04/23 08:56:44;;;;;;;6.00;5.13;;;;;;;32.59;22.68;95003.28;4985972;28;20295;-64
2023/04/23 08:59:11;;;;;;;4.88;4.47;;;;;;;34.21;21.09;94996.06;4985941;28;20307;-67
2023/04/23 09:01:38;;;;;;;7.15;4.63;;;;;;;33.74;20.85;94995.03;4985294;28;20663;-68
2023/04/23 09:04:05;;;;;;;5.60;4.68;;;;;;;33.46;21.38;94985.38;4984975;28;20350;-66
2023/04/23 09:06:33;;;;;;;5.30;5.00;;;;;;;33.61;21.01;94985.25;4986347;28;20211;-62
2023/04/23 09:09:00;;;;;;;7.25;5.47;;;;;;;34.21;20.79;94988.16;4986429;28;20317;-67
2023/04/23 09:11:27;;;;;;;5.05;4.75;;;;;;;34.54;20.78;94983.00;4986058;28;20652;-67
2023/04/23 09:13:54;;;;;;;9.52;5.07;;;;;;;33.71;20.87;94990.16;4985049;28;20223;-66
2023/04/23 09:16:21;;;;;;;5.22;4.85;;;;;;;31.72;22.58;94992.75;4985865;28;20208;-68
2023/04/23 09:18:50;;;;;;;6.05;4.70;;;;;;;31.22;23.87;94988.19;4984732;28;20302;-66
2023/04/23 09:21:17;;;;;;;5.20;4.80;;;;;;;29.14;24.78;94985.56;4985227;28;20583;-63
2023/04/23 09:23:45;;;;;;;7.97;5.00;;;;;;;26.46;28.62;94997.56;4984571;28;20300;-62
2023/04/23 09:26:19;;;;;;;4.95;4.57;;;;;;;26.33;29.42;94990.94;4985542;28;20703;-65
2023/04/23 09:28:49;;;;;;;7.80;5.40;;;;;;;25.36;31.25;94984.59;4985165;28;20738;-63
2023/04/23 09:31:20;;;;;;;6.15;5.22;;;;;;;25.09;31.39;94987.97;4984005;28;20215;-65
2023/04/23 09:33:51;;;;;;;9.75;6.10;;;;;;;23.38;33.66;94991.88;4985016;28;20281;-67
2023/04/23 09:36:21;;;;;;;6.85;6.30;;;;;;;21.80;36.86;94989.31;4986371;28;20599;-66
2023/04/23 09:38:49;;;;;;;7.65;6.80;;;;;;;20.37;40.01;94998.47;4983983;28;21252;-64
2023/04/23 09:41:23;;;;;;;6.78;6.10;;;;;;;19.69;41.31;94989.56;4985610;28;20231;-65
2023/04/23 09:43:52;;;;;;;6.05;5.45;;;;;;;19.54;42.20;94980.34;4985776;28;21683;-67
2023/04/23 09:46:19;;;;;;;7.18;6.57;;;;;;;19.61;42.93;94978.94;4986389;28;20306;-66
2023/04/23 09:48:47;;;;;;;13.02;10.38;;;;;;;20.16;43.37;94971.63;4986020;28;20700;-65
2023/04/23 09:51:14;;;;;;;8.27;5.57;;;;;;;20.74;40.75;94970.78;4984347;28;20246;-65
2023/04/23 09:53:43;;;;;;;7.40;6.47;;;;;;;20.83;39.94;94964.06;4983891;28;20330;-67
2023/04/23 09:56:11;;;;;;;14.05;6.45;;;;;;;20.96;39.73;94967.38;4985038;28;20200;-64
2023/04/23 09:58:38;;;;;;;6.38;5.78;;;;;;;21.00;39.50;94963.63;4985404;28;20199;-67
2023/04/23 10:01:09;;;;;;;7.50;6.72;;;;;;;20.95;40.80;94966.56;4986385;28;20696;-67
2023/04/23 10:03:35;;;;;;;6.32;5.78;;;;;;;20.69;39.57;94967.72;4984485;28;20203;-66
2023/04/23 10:06:02;;;;;;;9.13;5.97;;;;;;;20.38;40.32;94956.25;4984241;28;20261;-64
2023/04/23 10:08:31;;;;;;;7.85;5.93;;;;;;;20.19;40.25;94959.31;4985054;28;20604;-63
2023/04/23 10:10:58;;;;;;;7.32;6.68;;;;;;;20.12;40.02;94960.69;4984900;28;20674;-64
2023/04/23 10:13:27;;;;;;;6.18;5.65;;;;;;;20.12;40.70;94950.38;4985049;28;21955;-63
2023/04/23 10:15:55;;;;;;;10.68;7.97;;;;;;;20.24;39.58;94949.50;4984752;28;20302;-61
2023/04/23 10:18:22;;;;;;;6.65;5.68;;;;;;;20.03;39.14;94946.72;4986367;28;20215;-64
2023/04/23 10:20:50;;;;;;;6.60;6.10;;;;;;;19.55;40.20;94945.88;4984844;28;20377;-66
2023/04/23 10:23:19;;;;;;;11.80;6.05;;;;;;;19.43;41.54;94941.56;4983930;28;20338;-63
2023/04/23 10:25:48;;;;;;;5.85;5.00;;;;;;;19.60;40.74;94938.63;4983653;28;20211;-62
2023/04/23 10:28:20;;;;;;;5.65;5.35;;;;;;;19.94;40.20;94933.66;4985076;28;20228;-66
2023/04/23 10:30:49;;;;;;;5.18;4.82;;;;;;;20.21;38.14;94929.06;4984391;28;20621;-67
2023/04/23 10:33:17;;;;;;;7.63;5.32;;;;;;;20.58;38.73;94924.59;4984301;28;20985;-63
2023/04/23 10:35:44;;;;;;;4.88;4.57;;;;;;;20.78;36.75;94893.88;4986401;28;20212;-66
2023/04/23 10:38:11;;;;;;;5.22;4.82;;;;;;;20.45;36.50;94920.47;4985968;28;20330;-61
2023/04/23 10:40:42;;;;;;;5.82;5.32;;;;;;;20.34;37.36;94916.91;4985354;28;20362;-62
2023/04/23 10:43:09;;;;;;;7.07;5.38;;;;;;;20.42;37.93;94915.53;4989195;28;20729;-63
2023/04/23 10:45:36;;;;;;;7.82;5.70;;;;;;;20.45;37.25;94912.75;4989344;28;20283;-66
2023/04/23 10:48:04;;;;;;;8.18;5.60;;;;;;;20.26;37.26;94906.34;4989288;28;20666;-68
2023/04/23 10:50:35;;;;;;;6.28;5.78;;;;;;;20.20;37.52;94893.88;4987617;28;20902;-65
2023/04/23 10:53:03;;;;;;;6.50;5.38;;;;;;;19.87;38.36;94873.94;4988063;28;20334;-66
2023/04/23 10:55:31;;;;;;;5.88;5.43;;;;;;;19.97;38.45;94887.00;4986548;28;20367;-62
2023/04/23 10:58:00;;;;;;;8.15;5.53;;;;;;;20.20;38.24;94890.47;4989497;28;20291;-67
2023/04/23 11:00:27;;;;;;;5.53;5.05;;;;;;;20.46;37.31;94883.41;4988659;28;20212;-65
2023/04/23 11:02:55;;;;;;;6.35;4.50;;;;;;;20.51;36.79;94886.47;4987917;28;20293;-63
2023/04/23 11:05:24;;;;;;;6.03;5.53;;;;;;;20.46;36.51;94878.25;4988039;28;22260;-65
2023/04/23 11:08:05;;;;;;;5.60;5.05;;;;;;;20.47;34.96;94877.31;4989227;28;20515;-63
2023/04/23 11:10:32;;;;;;;6.15;5.70;;;;;;;20.13;34.66;94879.78;4987379;28;20340;-64
2023/04/23 11:13:20;;;;;;;5.75;4.82;;;;;;;20.21;34.91;94863.75;4989635;28;20219;-66
2023/04/23 11:15:47;;;;;;;5.43;4.70;;;;;;;20.41;34.70;94854.53;4987544;28;20231;-63
2023/04/23 11:18:13;;;;;;;7.30;5.70;;;;;;;20.03;34.54;94858.19;4986970;28;20749;-62
2023/04/23 11:20:42;;;;;;;5.18;4.68;;;;;;;19.58;34.56;94873.47;4987207;28;20291;-64
2023/04/23 11:23:28;;;;;;;4.95;4.55;;;;;;;19.17;33.54;94867.84;4989545;28;20303;-67
2023/04/23 11:25:56;;;;;;;5.55;4.78;;;;;;;18.99;35.25;94860.47;4986276;28;20299;-62
2023/04/23 11:28:23;;;;;;;5.35;4.80;;;;;;;19.27;36.34;94856.78;4988675;28;20682;-65
2023/04/23 11:30:50;;;;;;;5.88;5.38;;;;;;;19.56;35.87;94859.88;4987817;28;20748;-64
2023/04/23 11:33:17;;;;;;;4.40;4.10;;;;;;;19.85;36.00;94849.22;4987793;28;20262;-66
2023/04/23 11:35:45;;;;;;;4.20;3.80;;;;;;;20.30;33.45;94850.13;4987200;28;20641;-62